Flight Track Log - Related Links

Times and Time Zones

All times are in EDT time to prevent confusion due to time zone crossing. See the SKW2636 flight status page for this flight to view local times or setup timezone preferences in your user account.

Time Position Orientation Groundspeed Altitude Reporting Facility
EDT Latitude Longitude Course Direction KTS MPH feet Rate Location/Type
Tue 07:20:26 PM 34.4269 -119.8781 214° Southwest 192 221 1,400  Level Los Angeles Center
Tue 07:21:28 PM 34.3878 -119.9100 214° Southwest 248 285 3,700 2,129 Climbing Los Angeles Center
Tue 07:22:30 PM 34.3258 -119.8733 154° Southeast 249 287 5,800 2,195 Climbing Los Angeles Center
Tue 07:23:31 PM 34.2686 -119.8114 138° Southeast 273 314 8,200 2,000 Climbing Los Angeles Center
Tue 07:24:33 PM 34.2533 -119.7347 104° East 290 334 9,900 1,355 Climbing Los Angeles Center
Tue 07:25:35 PM 34.2344 -119.6350 103° East 299 344 11,000 532 Climbing Los Angeles Center
Tue 07:26:37 PM 34.2061 -119.4925 103° East 312 359 11,000  Level Los Angeles Center
Tue 07:27:51 PM 34.1878 -119.3878 102° East 327 376 11,000  Level Los Angeles Center
Tue 07:28:54 PM 34.1617 -119.2672 105° East 311 358 11,000  Level Los Angeles Center
Tue 07:29:56 PM 34.1403 -119.1658 104° East 312 359 11,000  Level Los Angeles Center
Tue 07:30:57 PM 34.1211 -119.0642 103° East 311 358 11,000  Level Los Angeles Center
Tue 07:31:59 PM 34.1019 -118.9619 103° East 311 358 11,000 -288 Level Los Angeles Center
Tue 07:33:02 PM 34.0806 -118.8403 102° East 307 353 10,400 -432 Descending Los Angeles Center
Tue 07:34:04 PM 34.0608 -118.7369 103° East 298 343 10,100 -194 Descending Los Angeles Center
Tue 07:35:06 PM 34.0444 -118.6433 102° East 282 325 10,000 -532 Descending Los Angeles Center
Tue 07:36:08 PM 34.0286 -118.5569 102° East 264 304 9,000 -1,024 Descending Los Angeles Center
Tue 07:37:09 PM 34.0131 -118.4658 102° East 256 295 7,900 -1,073 Descending Los Angeles Center
Tue 07:38:11 PM 34.0211 -118.3953 82° East 246 283 6,800 -1,306 Descending Los Angeles Center
Tue 07:39:13 PM 34.0308 -118.3114 82° East 249 287 5,200 -1,500 Descending Los Angeles Center
Tue 07:40:15 PM 33.9992 -118.2436 119° Southeast 249 287 3,700 -1,306 Descending Los Angeles Center
Tue 07:41:17 PM 33.9656 -118.2925 230° Southwest 201 231 2,500 -1,161 Descending Los Angeles Center
Tue 07:42:19 PM 33.9589 -118.3433 261° West 169 194 1,300 -968 Descending Los Angeles Center
Tue 07:43:21 PM 33.9544 -118.3892 263° West 150 173 500 -435 Descending Los Angeles Center
Tue 07:44:23 PM 33.9489 -118.4336 261° West 147 169 400 -97 Descending Los Angeles Center
Tue 07:46:00 PM 33.9425 -118.4081 116° Southeast  Level Estimated

Login

Don't have an account? Register now (free) for customized features, flight alerts, and more!